createdAt,value
2022-08-23T00:02:23.456Z,18.17
2022-08-23T00:05:07.932Z,18.08
2022-08-23T00:07:39.121Z,18.15
2022-08-23T00:10:10.827Z,18.00
2022-08-23T00:12:39.058Z,18.38
2022-08-23T00:15:09.596Z,18.52
2022-08-23T00:17:37.990Z,18.48
2022-08-23T00:20:08.045Z,17.90
2022-08-23T00:22:36.636Z,19.10
2022-08-23T00:25:05.790Z,18.45
2022-08-23T00:27:35.959Z,18.45
2022-08-23T00:30:08.287Z,18.92
2022-08-23T00:32:39.232Z,18.30
2022-08-23T00:35:09.461Z,18.13
2022-08-23T00:37:38.178Z,18.47
2022-08-23T00:40:08.880Z,18.27
2022-08-23T00:43:00.838Z,18.08
2022-08-23T00:45:54.221Z,18.45
2022-08-23T00:48:23.068Z,18.60
2022-08-23T00:50:56.667Z,18.25
2022-08-23T00:53:27.528Z,18.67
2022-08-23T00:56:00.082Z,18.48
2022-08-23T00:58:29.525Z,18.70
2022-08-23T01:01:00.856Z,18.37
2022-08-23T01:03:38.601Z,19.00
2022-08-23T01:06:14.789Z,18.33
2022-08-23T01:08:47.874Z,18.45
2022-08-23T01:11:20.275Z,19.27
2022-08-23T01:13:54.614Z,18.48
2022-08-23T01:16:27.661Z,18.10
2022-08-23T01:18:56.695Z,19.13
2022-08-23T01:21:28.808Z,18.17
2022-08-23T01:24:03.207Z,19.08
2022-08-23T01:26:35.174Z,18.60
2022-08-23T01:29:07.336Z,19.02
2022-08-23T01:31:36.849Z,18.55
2022-08-23T01:34:09.020Z,18.10
2022-08-23T01:36:37.956Z,18.50
2022-08-23T01:39:09.011Z,18.23
2022-08-23T01:41:38.873Z,18.20
2022-08-23T01:44:07.579Z,18.42
2022-08-23T01:46:36.408Z,19.33
2022-08-23T01:49:08.282Z,18.98
2022-08-23T01:51:37.519Z,18.52
2022-08-23T01:54:07.761Z,18.83
2022-08-23T01:56:38.640Z,18.48
2022-08-23T01:59:08.255Z,18.98
2022-08-23T02:01:36.576Z,18.73
2022-08-23T02:04:05.625Z,18.45
2022-08-23T02:06:34.336Z,18.15
2022-08-23T02:09:03.635Z,18.42
2022-08-23T02:11:38.219Z,18.03
2022-08-23T02:14:11.690Z,18.13
2022-08-23T02:16:53.697Z,18.55
2022-08-23T02:19:32.543Z,18.85
2022-08-23T02:22:00.824Z,19.10
2022-08-23T02:24:28.890Z,18.20
2022-08-23T02:27:02.542Z,18.80
2022-08-23T02:29:31.334Z,18.20
2022-08-23T02:32:00.662Z,18.50
2022-08-23T02:34:36.306Z,18.85
2022-08-23T02:37:05.326Z,18.43
2022-08-23T02:39:33.746Z,19.25
2022-08-23T02:42:03.191Z,18.63
2022-08-23T02:44:34.625Z,18.73
2022-08-23T02:47:03.007Z,18.70
2022-08-23T02:49:31.555Z,19.20
2022-08-23T02:51:59.752Z,18.63
2022-08-23T02:54:27.793Z,18.60
2022-08-23T02:56:55.802Z,18.40
2022-08-23T02:59:25.286Z,19.02
2022-08-23T03:01:53.288Z,19.10
2022-08-23T03:04:21.430Z,18.80
2022-08-23T03:06:49.603Z,19.58
2022-08-23T03:09:18.110Z,18.67
2022-08-23T03:11:49.582Z,18.88
2022-08-23T03:14:19.975Z,18.50
2022-08-23T03:16:50.174Z,18.40
2022-08-23T03:19:18.315Z,18.08
2022-08-23T03:21:46.457Z,18.25
2022-08-23T03:24:14.916Z,18.88
2022-08-23T03:26:44.111Z,19.27
2022-08-23T03:29:12.277Z,18.80
2022-08-23T03:31:41.547Z,18.63
2022-08-23T03:34:12.178Z,17.63
2022-08-23T03:36:40.309Z,18.42
2022-08-23T03:39:08.696Z,19.35
2022-08-23T03:41:36.722Z,18.67
2022-08-23T03:44:05.410Z,18.85
2022-08-23T03:46:34.211Z,29.45
2022-08-23T03:49:03.553Z,17.15
2022-08-23T03:51:34.455Z,17.80
2022-08-23T03:54:03.297Z,27.25
2022-08-23T03:56:33.872Z,27.42
2022-08-23T03:59:04.933Z,27.33
2022-08-23T04:01:33.454Z,28.75
2022-08-23T04:04:02.024Z,27.77
2022-08-23T04:06:33.321Z,23.13
2022-08-23T04:09:01.869Z,28.40
2022-08-23T04:11:30.177Z,28.33
2022-08-23T04:13:58.391Z,28.25
2022-08-23T04:16:26.477Z,27.75
2022-08-23T04:18:54.621Z,29.67
2022-08-23T04:21:24.991Z,26.75
2022-08-23T04:23:54.433Z,29.65
2022-08-23T04:26:23.651Z,29.38
2022-08-23T04:28:55.357Z,32.60
2022-08-23T04:31:26.724Z,28.85
2022-08-23T04:33:55.641Z,28.30
2022-08-23T04:36:25.181Z,23.13
2022-08-23T04:38:54.758Z,22.48
2022-08-23T04:41:40.432Z,22.65
2022-08-23T04:44:08.613Z,21.42
2022-08-23T04:46:36.830Z,20.23
2022-08-23T04:49:05.266Z,19.98
2022-08-23T04:51:33.502Z,19.15
2022-08-23T04:54:03.634Z,17.85
2022-08-23T04:56:32.872Z,18.13
2022-08-23T04:59:01.035Z,17.80
2022-08-23T05:01:29.267Z,19.08
2022-08-23T05:03:57.437Z,19.98
2022-08-23T05:06:25.806Z,18.50
2022-08-23T05:08:54.054Z,17.52
2022-08-23T05:11:23.789Z,18.45
2022-08-23T05:13:52.153Z,18.90
2022-08-23T05:16:20.368Z,20.65
2022-08-23T05:18:48.643Z,17.90
2022-08-23T05:21:18.146Z,19.50
2022-08-23T05:23:50.944Z,18.88
2022-08-23T05:26:24.371Z,19.02
2022-08-23T05:28:52.681Z,27.13
2022-08-23T05:31:23.301Z,23.20
2022-08-23T05:33:51.815Z,23.02
2022-08-23T05:36:21.534Z,26.05
2022-08-23T05:38:50.547Z,25.20
2022-08-23T05:41:20.839Z,28.15
2022-08-23T05:43:50.557Z,26.60
2022-08-23T05:46:21.627Z,24.92
2022-08-23T05:48:54.781Z,23.40
2022-08-23T05:51:24.965Z,24.20
2022-08-23T05:53:55.023Z,22.73
2022-08-23T05:56:26.810Z,25.10
2022-08-23T05:59:00.035Z,24.67
2022-08-23T06:01:29.087Z,25.63
2022-08-23T06:03:59.932Z,23.58
2022-08-23T06:06:36.414Z,23.15
2022-08-23T06:09:09.162Z,23.42
2022-08-23T06:11:38.173Z,24.08
2022-08-23T06:14:09.735Z,26.10
2022-08-23T06:16:42.160Z,28.27
2022-08-23T06:19:11.378Z,22.52
2022-08-23T06:21:40.592Z,22.77
2022-08-23T06:24:09.057Z,24.98
2022-08-23T06:26:39.321Z,25.00
2022-08-23T06:29:13.560Z,25.55
2022-08-23T06:31:49.038Z,21.33
2022-08-23T06:34:23.043Z,23.08
2022-08-23T06:36:53.735Z,25.00
2022-08-23T06:39:24.216Z,24.83
2022-08-23T06:41:53.037Z,20.75
2022-08-23T06:44:22.820Z,23.13
2022-08-23T06:46:50.925Z,23.92
2022-08-23T06:49:19.078Z,22.08
2022-08-23T06:51:50.829Z,25.35
2022-08-23T06:54:23.073Z,21.90
2022-08-23T06:56:55.246Z,24.30
2022-08-23T06:59:25.179Z,23.20
2022-08-23T07:01:56.455Z,49.55
2022-08-23T07:04:27.283Z,56.58
2022-08-23T07:06:55.615Z,59.33
2022-08-23T07:09:24.483Z,63.28
2022-08-23T07:11:52.598Z,57.88
2022-08-23T07:14:22.383Z,61.75
2022-08-23T07:16:53.893Z,64.72
2022-08-23T07:19:28.963Z,71.15
2022-08-23T07:21:57.958Z,57.08
2022-08-23T07:24:32.351Z,62.35
2022-08-23T07:27:06.194Z,58.42
2022-08-23T07:29:35.904Z,60.03
2022-08-23T07:32:06.103Z,55.08
2022-08-23T07:34:34.595Z,55.30
2022-08-23T07:37:02.757Z,58.67
2022-08-23T07:39:32.478Z,60.25
2022-08-23T07:42:01.594Z,61.63
2022-08-23T07:44:49.783Z,62.92
2022-08-23T07:47:21.436Z,63.65
2022-08-23T07:49:49.548Z,64.38
2022-08-23T07:52:17.763Z,64.75
2022-08-23T07:54:45.919Z,65.78
2022-08-23T07:57:17.731Z,62.67
2022-08-23T07:59:46.024Z,59.08
2022-08-23T08:02:14.281Z,58.88
2022-08-23T08:04:44.070Z,59.83
2022-08-23T08:07:21.211Z,55.22
2022-08-23T08:09:49.636Z,52.58
2022-08-23T08:12:18.002Z,56.25
2022-08-23T08:14:48.296Z,52.75
2022-08-23T08:17:17.186Z,51.67
2022-08-23T08:19:47.229Z,52.40
2022-08-23T08:22:15.362Z,56.28
2022-08-23T08:24:43.689Z,57.40
2022-08-23T08:27:12.229Z,59.13
2022-08-23T08:29:42.036Z,58.15
2022-08-23T08:32:13.911Z,60.20
2022-08-23T08:34:42.816Z,62.15
2022-08-23T08:37:12.551Z,57.45
2022-08-23T08:39:45.989Z,59.40
2022-08-23T08:42:50.060Z,58.30
2022-08-23T08:45:23.716Z,59.15
2022-08-23T08:48:00.609Z,60.70
2022-08-23T08:50:37.583Z,58.08
2022-08-23T08:53:11.252Z,60.60
2022-08-23T08:55:45.995Z,60.55
2022-08-23T08:58:18.163Z,60.25
2022-08-23T09:00:46.895Z,59.80
2022-08-23T09:03:20.379Z,59.72
2022-08-23T09:05:56.384Z,62.78
2022-08-23T09:08:50.978Z,63.47
2022-08-23T09:11:31.654Z,68.75
2022-08-23T09:14:16.500Z,61.80
2022-08-23T09:16:52.739Z,61.45
2022-08-23T09:19:23.255Z,61.47
2022-08-23T09:21:58.674Z,60.78
2022-08-23T09:24:28.787Z,62.42
2022-08-23T09:26:57.216Z,62.33
2022-08-23T09:29:27.790Z,57.08
2022-08-23T09:31:58.568Z,57.60
2022-08-23T09:34:42.004Z,59.45
2022-08-23T09:37:17.695Z,58.63
2022-08-23T09:39:50.766Z,61.72
2022-08-23T09:42:32.335Z,58.17
2022-08-23T09:45:03.003Z,57.42
2022-08-23T09:47:41.759Z,60.95
2022-08-23T09:50:24.418Z,59.78
2022-08-23T09:52:57.322Z,58.65
2022-08-23T09:55:33.755Z,59.95
2022-08-23T09:58:02.924Z,60.38
2022-08-23T10:00:34.948Z,62.50
2022-08-23T10:03:27.699Z,60.47
2022-08-23T10:05:57.309Z,63.72
2022-08-23T10:08:28.453Z,65.97
2022-08-23T10:11:03.636Z,62.88
2022-08-23T10:13:32.914Z,57.10
2022-08-23T10:16:08.685Z,60.40
2022-08-23T10:18:54.934Z,58.67
2022-08-23T10:21:30.086Z,60.25
2022-08-23T10:24:23.855Z,59.25
2022-08-23T10:27:29.227Z,61.60
2022-08-23T10:30:05.347Z,60.92
2022-08-23T10:32:57.813Z,58.20
2022-08-23T10:35:37.922Z,59.67
2022-08-23T10:38:32.941Z,59.67
2022-08-23T10:41:08.815Z,61.03
2022-08-23T10:43:45.991Z,60.05
2022-08-23T10:46:14.083Z,61.13
2022-08-23T10:48:51.540Z,59.85
2022-08-23T10:51:31.480Z,61.10
2022-08-23T10:54:06.324Z,62.53
2022-08-23T10:56:35.689Z,62.78
2022-08-23T10:59:11.839Z,68.72
2022-08-23T11:01:48.515Z,60.40
2022-08-23T11:04:26.190Z,62.83
2022-08-23T11:06:56.074Z,61.47
2022-08-23T11:09:48.833Z,60.03
2022-08-23T11:12:27.258Z,59.33
2022-08-23T11:15:13.814Z,61.63
2022-08-23T11:18:05.563Z,61.40
2022-08-23T11:20:59.694Z,61.05
2022-08-23T11:23:43.824Z,59.63
2022-08-23T11:26:29.597Z,60.45
2022-08-23T11:29:30.615Z,61.25
2022-08-23T11:32:06.689Z,58.67
2022-08-23T11:34:44.860Z,62.13
2022-08-23T11:37:29.735Z,59.95
2022-08-23T11:40:14.806Z,59.25
2022-08-23T11:42:50.695Z,61.90
2022-08-23T11:45:31.395Z,59.95
2022-08-23T11:48:14.306Z,59.20
2022-08-23T11:51:03.912Z,57.88
2022-08-23T11:53:43.583Z,60.28
2022-08-23T11:56:29.769Z,63.78
2022-08-23T11:59:17.644Z,62.00
2022-08-23T12:01:47.277Z,62.63
2022-08-23T12:04:34.647Z,60.50
2022-08-23T12:07:12.162Z,62.60
2022-08-23T12:09:57.849Z,60.85
2022-08-23T12:12:34.694Z,61.65
2022-08-23T12:15:08.841Z,59.22
2022-08-23T12:18:07.261Z,60.60
2022-08-23T12:20:37.953Z,58.63
2022-08-23T12:23:20.788Z,59.92
2022-08-23T12:26:08.081Z,58.72
2022-08-23T12:28:44.851Z,57.03
2022-08-23T12:31:21.202Z,59.22
2022-08-23T12:34:03.603Z,61.10
2022-08-23T12:36:40.370Z,61.17
2022-08-23T12:39:15.813Z,60.30
2022-08-23T12:41:55.658Z,62.25
2022-08-23T12:44:26.877Z,63.60
2022-08-23T12:46:55.856Z,64.88
2022-08-23T12:49:27.546Z,63.28
2022-08-23T12:51:59.970Z,65.65
2022-08-23T12:54:37.527Z,60.88
2022-08-23T12:57:11.938Z,63.28
2022-08-23T12:59:46.638Z,59.25
2022-08-23T13:02:20.039Z,63.58
2022-08-23T13:04:48.290Z,58.75
2022-08-23T13:07:22.277Z,64.28
2022-08-23T13:09:53.515Z,62.97
2022-08-23T13:12:22.667Z,64.78
2022-08-23T13:14:53.255Z,62.33
2022-08-23T13:17:32.530Z,62.60
2022-08-23T13:20:27.707Z,61.83
2022-08-23T13:23:03.063Z,58.78
2022-08-23T13:25:34.170Z,65.93
2022-08-23T13:28:05.401Z,59.35
2022-08-23T13:30:36.361Z,56.53
2022-08-23T13:33:23.068Z,59.42
2022-08-23T13:35:53.817Z,61.20
2022-08-23T13:38:26.449Z,56.58
2022-08-23T13:40:58.746Z,56.20
2022-08-23T13:43:31.179Z,58.15
2022-08-23T13:46:04.834Z,58.47
2022-08-23T13:48:34.954Z,59.65
2022-08-23T13:51:27.095Z,57.92
2022-08-23T13:53:58.310Z,58.80
2022-08-23T13:56:28.083Z,58.92
2022-08-23T13:58:59.132Z,59.28
2022-08-23T14:01:28.631Z,59.92
2022-08-23T14:03:57.251Z,60.13
2022-08-23T14:06:25.627Z,63.78
2022-08-23T14:08:53.864Z,61.67
2022-08-23T14:11:23.804Z,62.38
2022-08-23T14:13:52.137Z,65.05
2022-08-23T14:16:34.357Z,63.90
2022-08-23T14:20:31.396Z,61.67
2022-08-23T14:21:53.819Z,62.60
2022-08-23T14:24:22.075Z,63.13
2022-08-23T14:26:52.649Z,60.13
2022-08-23T14:29:22.491Z,62.42
2022-08-23T14:31:51.718Z,60.40
2022-08-23T14:34:20.181Z,62.00
2022-08-23T14:39:36.633Z,61.40
2022-08-23T14:42:07.315Z,62.80
2022-08-23T14:44:36.418Z,60.50
2022-08-23T14:47:05.661Z,57.97
2022-08-23T14:49:34.088Z,56.67
2022-08-23T14:52:02.339Z,56.22
2022-08-23T14:54:30.414Z,56.70
2022-08-23T14:56:58.505Z,57.03
2022-08-23T14:59:28.552Z,56.90
2022-08-23T15:01:57.679Z,58.55
2022-08-23T15:04:32.387Z,59.58
2022-08-23T15:07:19.570Z,58.13
2022-08-23T15:09:48.642Z,61.22
2022-08-23T15:15:12.086Z,64.90
2022-08-23T15:17:46.921Z,61.67
2022-08-23T15:20:15.437Z,57.72
2022-08-23T15:22:45.084Z,62.20
2022-08-23T15:25:23.547Z,61.50
2022-08-23T15:27:52.371Z,62.97
2022-08-23T15:30:23.082Z,63.50
2022-08-23T15:32:54.708Z,68.45
2022-08-23T15:35:38.947Z,63.97
2022-08-23T15:38:08.693Z,65.40
2022-08-23T15:40:37.052Z,64.38
2022-08-23T15:43:07.516Z,66.03
2022-08-23T15:45:38.086Z,215.57
2022-08-23T15:48:20.027Z,64.00
2022-08-23T15:50:48.556Z,59.70
2022-08-23T15:53:17.723Z,61.45
2022-08-23T15:55:46.758Z,61.13
2022-08-23T15:58:17.111Z,66.97
2022-08-23T16:00:48.005Z,60.38
2022-08-23T16:03:20.450Z,61.58
2022-08-23T16:05:53.694Z,64.45
2022-08-23T16:08:25.861Z,63.35
2022-08-23T16:10:55.116Z,60.72
2022-08-23T16:13:24.205Z,63.42
2022-08-23T16:15:53.683Z,60.50
2022-08-23T16:18:21.838Z,62.38
2022-08-23T16:20:54.315Z,63.10
2022-08-23T16:23:22.993Z,60.58
2022-08-23T16:25:51.152Z,62.00
2022-08-23T16:28:19.449Z,61.53
2022-08-23T16:30:47.830Z,62.28
2022-08-23T16:33:17.270Z,78.40
2022-08-23T16:35:45.407Z,62.05
2022-08-23T16:38:13.505Z,63.45
2022-08-23T16:40:41.578Z,63.00
2022-08-23T16:43:09.702Z,64.40
2022-08-23T16:45:37.871Z,66.05
2022-08-23T16:48:06.369Z,64.70
2022-08-23T16:50:35.842Z,63.30
2022-08-23T16:53:07.262Z,66.55
2022-08-23T16:55:36.011Z,63.53
2022-08-23T16:58:04.773Z,65.38
2022-08-23T17:00:33.185Z,101.45
2022-08-23T17:03:01.483Z,20.00
2022-08-23T17:05:30.214Z,19.38
2022-08-23T17:08:00.180Z,20.17
2022-08-23T17:10:29.604Z,19.13
2022-08-23T17:12:59.648Z,19.40
2022-08-23T17:15:31.661Z,19.85
2022-08-23T17:18:00.830Z,19.05
2022-08-23T17:20:30.780Z,18.48
2022-08-23T17:23:00.306Z,18.08
2022-08-23T17:25:34.033Z,18.10
2022-08-23T17:28:03.569Z,19.65
2022-08-23T17:30:31.932Z,17.38
2022-08-23T17:33:00.278Z,17.30
2022-08-23T17:35:33.603Z,17.33
2022-08-23T17:38:04.148Z,17.40
2022-08-23T17:40:36.311Z,17.85
2022-08-23T17:43:05.183Z,17.70
2022-08-23T17:45:39.599Z,17.60
2022-08-23T17:48:07.907Z,16.80
2022-08-23T17:50:36.240Z,17.65
2022-08-23T17:53:06.028Z,36.55
2022-08-23T17:55:36.038Z,17.23
2022-08-23T17:58:04.818Z,17.00
2022-08-23T18:00:33.773Z,17.52
2022-08-23T18:03:02.428Z,17.25
2022-08-23T18:05:33.196Z,17.95
2022-08-23T18:08:01.968Z,19.30
2022-08-23T18:10:31.640Z,16.75
2022-08-23T18:13:00.070Z,18.88
2022-08-23T18:15:30.183Z,19.55
2022-08-23T18:18:00.249Z,19.30
2022-08-23T18:20:29.464Z,19.08
2022-08-23T18:22:59.724Z,19.65
2022-08-23T18:25:28.175Z,19.00
2022-08-23T18:28:10.008Z,19.45
2022-08-23T18:30:40.801Z,18.83
2022-08-23T18:33:12.640Z,19.20
2022-08-23T18:35:41.924Z,19.13
2022-08-23T18:38:12.572Z,18.70
2022-08-23T18:40:46.184Z,18.17
2022-08-23T18:43:17.948Z,18.58
2022-08-23T18:45:47.242Z,18.88
2022-08-23T18:48:15.655Z,18.73
2022-08-23T18:50:43.923Z,19.30
2022-08-23T18:53:13.550Z,18.63
2022-08-23T18:55:44.208Z,20.05
2022-08-23T18:58:12.392Z,18.73
2022-08-23T19:00:42.945Z,19.40
2022-08-23T19:03:11.961Z,19.10
2022-08-23T19:05:42.370Z,14.95
2022-08-23T19:08:11.824Z,18.38
2022-08-23T19:10:40.730Z,18.80
2022-08-23T19:13:09.581Z,18.15
2022-08-23T19:15:40.325Z,18.33
2022-08-23T19:18:10.926Z,18.52
2022-08-23T19:20:39.439Z,18.50
2022-08-23T19:23:07.561Z,19.33
2022-08-23T19:25:38.393Z,18.73
2022-08-23T19:28:07.089Z,18.80
2022-08-23T19:30:36.464Z,18.60
2022-08-23T19:33:05.155Z,18.20
2022-08-23T19:35:34.896Z,17.95
2022-08-23T19:38:03.321Z,18.38
2022-08-23T19:40:31.501Z,18.10
2022-08-23T19:43:00.516Z,17.77
2022-08-23T19:45:29.468Z,18.17
2022-08-23T19:48:00.551Z,17.95
2022-08-23T19:50:29.577Z,19.20
2022-08-23T19:52:59.389Z,18.23
2022-08-23T19:55:29.419Z,18.13
2022-08-23T19:57:58.261Z,17.58
2022-08-23T20:00:27.715Z,17.90
2022-08-23T20:02:56.168Z,17.70
2022-08-23T20:05:24.336Z,17.17
2022-08-23T20:07:52.442Z,18.45
2022-08-23T20:10:22.492Z,17.52
2022-08-23T20:12:50.590Z,17.70
2022-08-23T20:15:18.971Z,17.77
2022-08-23T20:17:47.174Z,17.88
2022-08-23T20:20:15.226Z,16.83
2022-08-23T20:23:01.108Z,17.40
2022-08-23T20:25:31.429Z,17.60
2022-08-23T20:27:59.921Z,17.27
2022-08-23T20:30:28.146Z,17.63
2022-08-23T20:32:56.245Z,17.95
2022-08-23T20:35:24.578Z,16.77
2022-08-23T20:37:52.858Z,18.23
2022-08-23T20:40:21.828Z,17.10
2022-08-23T20:42:52.409Z,17.00
2022-08-23T20:45:20.809Z,17.50
2022-08-23T20:47:48.934Z,16.90
2022-08-23T20:50:17.118Z,17.75
2022-08-23T20:52:45.210Z,17.00
2022-08-23T20:55:15.352Z,17.52
2022-08-23T20:57:43.584Z,17.95
2022-08-23T21:00:14.349Z,16.73
2022-08-23T21:02:42.553Z,16.67
2022-08-23T21:05:10.850Z,16.98
2022-08-23T21:07:39.009Z,17.20
2022-08-23T21:10:07.865Z,17.02
2022-08-23T21:12:36.111Z,17.13
2022-08-23T21:15:06.864Z,16.70
2022-08-23T21:17:40.053Z,16.52
2022-08-23T21:20:08.960Z,16.92
2022-08-23T21:22:37.152Z,16.67
2022-08-23T21:25:06.054Z,16.75
2022-08-23T21:27:34.652Z,17.40
2022-08-23T21:30:03.058Z,16.88
2022-08-23T21:32:31.214Z,16.98
2022-08-23T21:35:02.110Z,17.20
2022-08-23T21:37:30.195Z,16.75
2022-08-23T21:39:58.338Z,17.65
2022-08-23T21:42:26.442Z,17.00
2022-08-23T21:44:54.688Z,17.63
2022-08-23T21:47:23.261Z,17.08
2022-08-23T21:49:51.437Z,16.50
2022-08-23T21:52:20.995Z,16.63
2022-08-23T21:54:49.101Z,16.33
2022-08-23T21:57:17.354Z,16.55
2022-08-23T21:59:45.415Z,16.60
2022-08-23T22:02:13.552Z,17.00
2022-08-23T22:04:41.609Z,16.60
2022-08-23T22:07:09.678Z,16.60
2022-08-23T22:09:39.107Z,17.90
2022-08-23T22:12:09.613Z,17.55
2022-08-23T22:14:37.828Z,16.10
2022-08-23T22:17:06.632Z,16.13
2022-08-23T22:19:34.717Z,16.73
2022-08-23T22:22:02.954Z,16.50
2022-08-23T22:24:31.595Z,17.10
2022-08-23T22:27:01.087Z,17.95
2022-08-23T22:29:29.275Z,17.08
2022-08-23T22:31:57.539Z,16.98
2022-08-23T22:34:25.605Z,17.67
2022-08-23T22:36:55.795Z,17.20
2022-08-23T22:39:24.360Z,16.63
2022-08-23T22:41:52.773Z,17.23
2022-08-23T22:44:22.553Z,18.15
2022-08-23T22:46:50.650Z,18.20
2022-08-23T22:49:18.762Z,17.00
2022-08-23T22:51:46.842Z,17.30
2022-08-23T22:54:17.867Z,17.08
2022-08-23T22:56:47.791Z,17.08
2022-08-23T22:59:17.066Z,17.02
2022-08-23T23:01:50.464Z,17.20
2022-08-23T23:04:20.478Z,17.33
2022-08-23T23:06:49.042Z,16.83
2022-08-23T23:09:17.645Z,17.10
2022-08-23T23:11:46.722Z,17.25
2022-08-23T23:14:16.162Z,17.10
2022-08-23T23:16:45.171Z,16.90
2022-08-23T23:19:32.138Z,17.23
2022-08-23T23:22:01.455Z,17.60
2022-08-23T23:24:32.235Z,17.08
2022-08-23T23:27:00.726Z,17.67
2022-08-23T23:29:29.549Z,16.88
2022-08-23T23:31:58.814Z,16.98
2022-08-23T23:34:29.247Z,16.67
2022-08-23T23:36:58.068Z,17.00
2022-08-23T23:39:27.321Z,17.13
2022-08-23T23:41:55.992Z,16.77
2022-08-23T23:44:31.451Z,16.60
2022-08-23T23:47:00.637Z,17.05
2022-08-23T23:49:33.077Z,17.30
2022-08-23T23:52:02.987Z,17.80
2022-08-23T23:54:31.515Z,17.85
2022-08-23T23:57:00.196Z,17.83
2022-08-23T23:59:28.562Z,16.95
